createdAt,value
2019-06-15T00:01:47.861Z,27.13
2019-06-15T00:04:16.835Z,27.61
2019-06-15T00:06:45.809Z,27.72
2019-06-15T00:09:15.339Z,27.72
2019-06-15T00:11:44.317Z,27.09
2019-06-15T00:14:13.218Z,27.00
2019-06-15T00:16:42.092Z,26.50
2019-06-15T00:19:11.046Z,25.87
2019-06-15T00:21:39.951Z,25.85
2019-06-15T00:24:08.831Z,25.89
2019-06-15T00:26:38.008Z,26.52
2019-06-15T00:29:07.005Z,26.57
2019-06-15T00:31:36.074Z,26.32
2019-06-15T00:34:05.060Z,26.37
2019-06-15T00:36:34.721Z,26.32
2019-06-15T00:39:04.002Z,25.25
2019-06-15T00:41:32.873Z,24.88
2019-06-15T00:44:01.806Z,24.51
2019-06-15T00:46:30.803Z,24.89
2019-06-15T00:48:59.775Z,25.54
2019-06-15T00:51:28.762Z,25.70
2019-06-15T00:53:57.804Z,26.07
2019-06-15T00:56:26.642Z,25.64
2019-06-15T00:58:55.548Z,25.13
2019-06-15T01:01:24.777Z,24.65
2019-06-15T01:03:55.206Z,24.75
2019-06-15T01:06:24.252Z,25.37
2019-06-15T01:08:53.139Z,25.47
2019-06-15T01:11:22.105Z,25.37
2019-06-15T01:13:51.082Z,25.45
2019-06-15T01:16:19.942Z,25.10
2019-06-15T01:18:48.913Z,25.02
2019-06-15T01:21:18.213Z,25.35
2019-06-15T01:23:47.395Z,25.34
2019-06-15T01:26:16.304Z,25.19
2019-06-15T01:28:45.196Z,25.12
2019-06-15T01:31:14.114Z,24.81
2019-06-15T01:33:43.090Z,24.49
2019-06-15T01:36:11.991Z,23.87
2019-06-15T01:38:40.967Z,24.34
2019-06-15T01:41:09.936Z,24.40
2019-06-15T01:43:38.829Z,24.55
2019-06-15T01:46:07.787Z,24.90
2019-06-15T01:48:36.741Z,24.27
2019-06-15T01:51:05.704Z,25.00
2019-06-15T01:53:34.606Z,24.49
2019-06-15T01:56:03.616Z,24.37
2019-06-15T01:58:32.804Z,24.48
2019-06-15T02:01:01.771Z,24.54
2019-06-15T02:03:30.764Z,24.72
2019-06-15T02:05:59.707Z,24.43
2019-06-15T02:08:28.613Z,24.66
2019-06-15T02:10:57.867Z,24.60
2019-06-15T02:13:26.766Z,24.65
2019-06-15T02:15:55.652Z,24.19
2019-06-15T02:18:24.647Z,24.12
2019-06-15T02:20:54.164Z,24.26
2019-06-15T02:23:23.068Z,24.00
2019-06-15T02:25:52.366Z,24.00
2019-06-15T02:28:21.603Z,24.11
2019-06-15T02:30:50.551Z,24.38
2019-06-15T02:33:19.545Z,24.33
2019-06-15T02:35:48.495Z,24.47
2019-06-15T02:38:17.788Z,23.82
2019-06-15T02:40:46.695Z,24.19
2019-06-15T02:43:15.966Z,23.67
2019-06-15T02:45:44.927Z,23.92
2019-06-15T02:48:13.914Z,24.17
2019-06-15T02:50:43.192Z,23.65
2019-06-15T02:53:12.070Z,24.13
2019-06-15T02:55:50.278Z,24.09
2019-06-15T02:58:11.670Z,23.60
2019-06-15T03:00:47.929Z,23.95
2019-06-15T03:03:16.952Z,24.05
2019-06-15T03:05:46.068Z,24.08
2019-06-15T03:08:15.033Z,24.14
2019-06-15T03:10:43.988Z,24.31
2019-06-15T03:13:13.713Z,23.70
2019-06-15T03:15:42.682Z,24.09
2019-06-15T03:18:11.645Z,23.90
2019-06-15T03:20:40.595Z,23.73
2019-06-15T03:23:09.795Z,23.68
2019-06-15T03:25:38.787Z,23.38
2019-06-15T03:28:07.750Z,23.74
2019-06-15T03:30:36.651Z,23.65
2019-06-15T03:33:06.209Z,23.86
2019-06-15T03:35:35.156Z,23.50
2019-06-15T03:38:04.166Z,23.67
2019-06-15T03:40:33.059Z,23.85
2019-06-15T03:43:02.039Z,23.38
2019-06-15T03:45:30.922Z,24.11
2019-06-15T03:47:59.915Z,24.15
2019-06-15T03:50:29.119Z,24.00
2019-06-15T03:52:58.072Z,23.80
2019-06-15T03:55:27.237Z,24.39
2019-06-15T03:57:56.196Z,24.07
2019-06-15T04:01:00.360Z,24.61
2019-06-15T04:03:29.245Z,24.28
2019-06-15T04:05:58.502Z,24.49
2019-06-15T04:08:27.395Z,24.48
2019-06-15T04:10:56.309Z,24.69
2019-06-15T04:13:25.213Z,24.34
2019-06-15T04:15:54.194Z,24.24
2019-06-15T04:18:23.191Z,24.69
2019-06-15T04:20:52.175Z,24.43
2019-06-15T04:23:21.342Z,25.01
2019-06-15T04:25:50.468Z,25.14
2019-06-15T04:28:19.367Z,25.66
2019-06-15T04:30:48.363Z,25.36
2019-06-15T04:33:17.256Z,24.87
2019-06-15T04:35:46.233Z,25.77
2019-06-15T04:38:15.240Z,25.60
2019-06-15T04:40:44.181Z,25.42
2019-06-15T04:43:14.070Z,26.15
2019-06-15T04:45:43.368Z,26.03
2019-06-15T04:48:12.245Z,26.50
2019-06-15T04:50:41.221Z,26.50
2019-06-15T04:53:10.111Z,26.26
2019-06-15T04:55:39.124Z,26.17
2019-06-15T04:58:07.988Z,26.32
2019-06-15T05:00:36.901Z,26.32
2019-06-15T05:03:05.922Z,27.28
2019-06-15T05:05:34.917Z,27.15
2019-06-15T05:08:03.891Z,27.39
2019-06-15T05:10:32.848Z,27.10
2019-06-15T05:13:02.102Z,27.84
2019-06-15T05:15:30.977Z,27.88
2019-06-15T05:17:59.921Z,28.37
2019-06-15T05:20:28.907Z,29.18
2019-06-15T05:22:57.869Z,30.22
2019-06-15T05:25:26.826Z,30.21
2019-06-15T05:27:55.740Z,29.63
2019-06-15T05:30:24.696Z,29.50
2019-06-15T05:32:53.607Z,29.17
2019-06-15T05:35:23.659Z,29.13
2019-06-15T05:37:52.656Z,28.97
2019-06-15T05:40:21.591Z,28.82
2019-06-15T05:42:50.875Z,28.75
2019-06-15T05:45:19.841Z,28.76
2019-06-15T05:47:49.098Z,28.77
2019-06-15T05:50:18.081Z,27.98
2019-06-15T05:52:46.969Z,28.91
2019-06-15T05:55:15.996Z,29.09
2019-06-15T05:57:44.928Z,29.01
2019-06-15T06:00:14.021Z,28.93
2019-06-15T06:02:43.044Z,29.23
2019-06-15T06:05:12.147Z,28.58
2019-06-15T06:07:41.587Z,29.44
2019-06-15T06:10:11.198Z,30.46
2019-06-15T06:12:40.322Z,31.46
2019-06-15T06:15:09.783Z,31.44
2019-06-15T06:17:38.777Z,32.47
2019-06-15T06:20:08.186Z,32.57
2019-06-15T06:22:37.185Z,32.17
2019-06-15T06:25:07.153Z,32.01
2019-06-15T06:27:36.952Z,31.97
2019-06-15T06:30:07.067Z,31.52
2019-06-15T06:32:36.049Z,31.51
2019-06-15T06:35:06.460Z,31.86
2019-06-15T06:37:35.453Z,31.58
2019-06-15T06:40:05.257Z,33.03
2019-06-15T06:42:34.131Z,33.39
2019-06-15T06:45:03.471Z,34.80
2019-06-15T06:47:32.349Z,34.82
2019-06-15T06:50:01.375Z,34.69
2019-06-15T06:52:30.319Z,32.95
2019-06-15T06:54:59.325Z,34.61
2019-06-15T06:57:28.220Z,33.38
2019-06-15T06:59:57.203Z,33.20
2019-06-15T07:02:26.242Z,33.37
2019-06-15T07:04:55.139Z,33.87
2019-06-15T07:07:24.272Z,34.54
2019-06-15T07:09:53.183Z,34.19
2019-06-15T07:12:22.409Z,34.68
2019-06-15T07:14:51.389Z,33.90
2019-06-15T07:17:20.404Z,31.31
2019-06-15T07:19:49.308Z,31.72
2019-06-15T07:22:18.596Z,30.45
2019-06-15T07:24:47.526Z,28.72
2019-06-15T07:27:16.499Z,28.40
2019-06-15T07:29:45.649Z,27.20
2019-06-15T07:32:14.662Z,27.56
2019-06-15T07:34:43.606Z,27.23
2019-06-15T07:37:12.492Z,27.73
2019-06-15T07:39:41.470Z,26.24
2019-06-15T07:42:10.459Z,26.59
2019-06-15T07:44:39.368Z,26.53
2019-06-15T07:47:08.358Z,27.22
2019-06-15T07:49:37.339Z,27.38
2019-06-15T07:52:06.328Z,26.79
2019-06-15T07:54:36.293Z,26.96
2019-06-15T07:57:05.254Z,26.51
2019-06-15T07:59:34.226Z,26.28
2019-06-15T08:02:03.267Z,26.88
2019-06-15T08:04:32.218Z,26.88
2019-06-15T08:07:01.099Z,27.26
2019-06-15T08:09:30.118Z,26.77
2019-06-15T08:11:59.365Z,27.06
2019-06-15T08:14:28.349Z,26.63
2019-06-15T08:16:57.250Z,27.02
2019-06-15T08:19:26.211Z,26.99
2019-06-15T08:21:55.206Z,27.14
2019-06-15T08:24:24.081Z,24.70
2019-06-15T08:26:53.061Z,25.38
2019-06-15T08:29:22.063Z,25.98
2019-06-15T08:31:51.308Z,26.82
2019-06-15T08:34:20.263Z,27.22
2019-06-15T08:36:49.216Z,28.23
2019-06-15T08:39:18.135Z,28.23
2019-06-15T08:41:47.092Z,27.78
2019-06-15T08:44:16.499Z,28.99
2019-06-15T08:46:45.521Z,30.39
2019-06-15T08:49:14.693Z,31.72
2019-06-15T08:51:43.716Z,32.99
2019-06-15T08:54:12.693Z,32.99
2019-06-15T08:56:41.667Z,32.20
2019-06-15T08:59:10.702Z,30.73
2019-06-15T09:01:39.706Z,30.80
2019-06-15T09:04:08.693Z,29.10
2019-06-15T09:06:37.740Z,28.25
2019-06-15T09:09:07.719Z,30.08
2019-06-15T09:11:36.680Z,29.64
2019-06-15T09:14:05.708Z,31.62
2019-06-15T09:16:34.640Z,32.35
2019-06-15T09:19:03.630Z,30.30
2019-06-15T09:21:32.523Z,29.00
2019-06-15T09:24:01.577Z,27.77
2019-06-15T09:26:30.573Z,27.56
2019-06-15T09:29:10.806Z,29.79
2019-06-15T09:31:30.301Z,29.57
2019-06-15T09:33:59.300Z,29.15
2019-06-15T09:36:28.229Z,30.51
2019-06-15T09:38:57.133Z,31.08
2019-06-15T09:41:26.111Z,31.83
2019-06-15T09:43:55.297Z,32.92
2019-06-15T09:46:24.255Z,31.96
2019-06-15T09:48:53.490Z,32.51
2019-06-15T09:51:22.455Z,31.87
2019-06-15T09:53:51.456Z,30.78
2019-06-15T09:56:20.442Z,29.70
2019-06-15T09:58:49.467Z,28.82
2019-06-15T10:01:18.758Z,28.15
2019-06-15T10:03:47.658Z,29.21
2019-06-15T10:06:16.638Z,30.82
2019-06-15T10:08:45.613Z,31.28
2019-06-15T10:11:14.709Z,33.83
2019-06-15T10:13:43.725Z,34.52
2019-06-15T10:16:12.723Z,34.37
2019-06-15T10:18:41.703Z,34.61
2019-06-15T10:21:10.679Z,33.73
2019-06-15T10:23:39.669Z,31.77
2019-06-15T10:26:08.694Z,30.62
2019-06-15T10:28:37.691Z,30.14
2019-06-15T10:31:06.685Z,29.17
2019-06-15T10:33:35.688Z,29.90
2019-06-15T10:36:04.981Z,30.90
2019-06-15T10:38:33.978Z,30.01
2019-06-15T10:41:02.936Z,29.81
2019-06-15T10:43:31.922Z,30.82
2019-06-15T10:46:00.806Z,29.77
2019-06-15T10:48:30.130Z,31.08
2019-06-15T10:50:59.125Z,32.52
2019-06-15T10:53:28.092Z,34.72
2019-06-15T10:55:57.013Z,34.20
2019-06-15T10:58:25.924Z,33.86
2019-06-15T11:00:54.842Z,35.27
2019-06-15T11:03:23.802Z,33.67
2019-06-15T11:05:54.922Z,32.88
2019-06-15T11:08:23.924Z,31.99
2019-06-15T11:11:21.645Z,31.31
2019-06-15T11:13:50.275Z,29.50
2019-06-15T11:16:19.424Z,28.97
2019-06-15T11:18:48.613Z,28.77
2019-06-15T11:21:17.586Z,29.68
2019-06-15T11:23:46.610Z,28.81
2019-06-15T11:26:15.543Z,29.39
2019-06-15T11:28:44.516Z,28.79
2019-06-15T11:31:13.496Z,27.21
2019-06-15T11:33:42.465Z,27.47
2019-06-15T11:36:11.431Z,27.97
2019-06-15T11:38:40.653Z,27.79
2019-06-15T11:41:09.654Z,28.52
2019-06-15T11:43:38.540Z,29.29
2019-06-15T11:46:07.761Z,29.75
2019-06-15T11:48:36.724Z,29.84
2019-06-15T11:51:05.613Z,29.27
2019-06-15T11:53:34.576Z,29.56
2019-06-15T11:56:03.547Z,29.26
2019-06-15T11:58:32.738Z,28.05
2019-06-15T12:01:01.754Z,28.05
2019-06-15T12:03:30.644Z,28.79
2019-06-15T12:05:59.566Z,28.78
2019-06-15T12:08:28.501Z,28.48
2019-06-15T12:10:57.396Z,28.90
2019-06-15T12:13:26.370Z,28.45
2019-06-15T12:15:55.586Z,28.71
2019-06-15T12:18:24.505Z,29.73
2019-06-15T12:20:53.645Z,30.28
2019-06-15T12:23:22.591Z,29.67
2019-06-15T12:25:51.487Z,29.80
2019-06-15T12:28:20.395Z,28.76
2019-06-15T12:30:49.632Z,29.53
2019-06-15T12:33:18.631Z,29.44
2019-06-15T12:35:47.622Z,29.91
2019-06-15T12:38:16.779Z,29.51
2019-06-15T12:40:45.761Z,29.47
2019-06-15T12:43:15.317Z,28.49
2019-06-15T12:45:44.278Z,28.98
2019-06-15T12:48:13.202Z,28.85
2019-06-15T12:50:42.184Z,28.42
2019-06-15T12:53:11.115Z,27.65
2019-06-15T12:55:40.390Z,28.42
2019-06-15T12:58:09.421Z,27.15
2019-06-15T13:00:38.694Z,27.97
2019-06-15T13:03:07.678Z,27.26
2019-06-15T13:05:36.619Z,28.96
2019-06-15T13:08:05.710Z,29.52
2019-06-15T13:10:34.939Z,30.58
2019-06-15T13:13:03.992Z,30.61
2019-06-15T13:15:32.973Z,28.30
2019-06-15T13:18:01.958Z,29.04
2019-06-15T13:20:31.068Z,28.67
2019-06-15T13:23:00.638Z,29.39
2019-06-15T13:25:29.638Z,29.17
2019-06-15T13:27:58.912Z,29.10
2019-06-15T13:30:27.914Z,30.09
2019-06-15T13:32:57.074Z,29.92
2019-06-15T13:35:26.094Z,29.48
2019-06-15T13:54:24.028Z,28.44
2019-06-15T13:56:53.380Z,28.60
2019-06-15T13:59:22.389Z,28.23
2019-06-15T14:01:51.320Z,29.11
2019-06-15T14:04:20.307Z,28.93
2019-06-15T14:06:49.201Z,29.48
2019-06-15T14:09:18.138Z,29.34
2019-06-15T14:11:47.062Z,29.31
2019-06-15T14:14:16.085Z,28.72
2019-06-15T14:16:45.024Z,28.13
2019-06-15T14:19:14.321Z,29.33
2019-06-15T14:21:43.266Z,28.68
2019-06-15T14:24:12.298Z,28.52
2019-06-15T14:26:41.212Z,28.48
2019-06-15T14:29:10.312Z,29.50
2019-06-15T14:31:49.664Z,29.55
2019-06-15T14:34:10.248Z,29.47
2019-06-15T14:36:39.235Z,28.45
2019-06-15T14:39:08.253Z,29.12
2019-06-15T14:41:37.153Z,28.71
2019-06-15T14:44:06.410Z,28.57
2019-06-15T14:46:36.304Z,29.89
2019-06-15T14:49:05.272Z,29.81
2019-06-15T14:54:08.768Z,30.50
2019-06-15T14:56:37.684Z,30.39
2019-06-15T14:59:06.665Z,29.71
2019-06-15T15:01:35.664Z,29.61
2019-06-15T15:04:06.269Z,29.34
2019-06-15T15:06:36.884Z,29.07
2019-06-15T15:09:07.100Z,29.30
2019-06-15T15:11:36.711Z,29.31
2019-06-15T15:14:06.681Z,29.83
2019-06-15T15:16:35.723Z,29.20
2019-06-15T15:19:06.102Z,30.32
2019-06-15T15:21:37.129Z,30.54
2019-06-15T15:24:06.924Z,29.65
2019-06-15T15:26:37.050Z,30.95
2019-06-15T15:29:06.985Z,29.83
2019-06-15T15:31:36.337Z,30.49
2019-06-15T15:34:07.898Z,29.25
2019-06-15T15:36:36.850Z,29.83
2019-06-15T15:39:10.070Z,28.35
2019-06-15T15:41:37.363Z,29.16
2019-06-15T15:44:06.376Z,28.36
2019-06-15T15:46:35.610Z,28.20
2019-06-15T15:49:06.903Z,28.86
2019-06-15T15:51:36.878Z,28.84
2019-06-15T15:54:07.216Z,28.43
2019-06-15T15:56:36.351Z,28.92
2019-06-15T15:59:06.816Z,28.98
2019-06-15T16:01:37.039Z,28.63
2019-06-15T16:04:06.404Z,30.19
2019-06-15T16:06:36.274Z,29.93
2019-06-15T16:09:06.354Z,30.65
2019-06-15T16:11:37.102Z,29.63
2019-06-15T16:14:07.191Z,29.63
2019-06-15T16:16:36.697Z,30.02
2019-06-15T16:19:06.560Z,29.25
2019-06-15T16:21:36.687Z,28.75
2019-06-15T16:24:07.343Z,28.05
2019-06-15T16:26:37.564Z,29.15
2019-06-15T16:29:07.045Z,29.09
2019-06-15T16:31:37.444Z,29.04
2019-06-15T16:34:06.554Z,28.36
2019-06-15T16:36:36.528Z,29.75
2019-06-15T16:39:06.721Z,29.07
2019-06-15T16:41:36.417Z,29.17
2019-06-15T16:44:07.084Z,27.94
2019-06-15T16:46:36.870Z,28.43
2019-06-15T16:49:06.270Z,27.44
2019-06-15T16:51:36.113Z,27.63
2019-06-15T16:54:06.303Z,28.35
2019-06-15T16:56:36.196Z,28.58
2019-06-15T16:59:06.577Z,29.28
2019-06-15T17:01:35.784Z,28.80
2019-06-15T17:04:06.122Z,29.79
2019-06-15T17:06:37.664Z,29.99
2019-06-15T17:09:06.996Z,29.38
2019-06-15T17:11:36.712Z,28.71
2019-06-15T17:14:06.887Z,28.37
2019-06-15T17:16:36.778Z,28.36
2019-06-15T17:19:07.099Z,28.95
2019-06-15T17:21:37.264Z,28.81
2019-06-15T17:24:06.818Z,27.77
2019-06-15T17:26:36.621Z,27.64
2019-06-15T17:29:07.352Z,27.19
2019-06-15T17:31:37.474Z,27.41
2019-06-15T17:34:07.281Z,27.79
2019-06-15T17:36:36.956Z,27.14
2019-06-15T17:39:07.136Z,27.34
2019-06-15T17:41:36.690Z,27.71
2019-06-15T17:44:06.186Z,27.50
2019-06-15T17:46:35.296Z,27.17
2019-06-15T17:49:06.577Z,26.40
2019-06-15T17:51:36.843Z,26.72
2019-06-15T17:54:06.406Z,27.19
2019-06-15T17:56:36.647Z,27.36
2019-06-15T17:59:06.493Z,27.21
2019-06-15T18:01:36.425Z,26.18
2019-06-15T18:04:07.885Z,27.73
2019-06-15T18:06:36.219Z,26.64
2019-06-15T18:09:06.625Z,26.72
2019-06-15T18:11:37.540Z,27.55
2019-06-15T18:14:06.201Z,26.30
2019-06-15T18:16:36.944Z,27.71
2019-06-15T18:19:06.990Z,28.71
2019-06-15T18:21:40.929Z,28.05
2019-06-15T18:24:06.803Z,26.91
2019-06-15T18:26:36.482Z,28.02
2019-06-15T18:29:05.591Z,28.03
2019-06-15T18:31:36.436Z,28.15
2019-06-15T18:34:10.270Z,27.93
2019-06-15T18:36:36.573Z,27.39
2019-06-15T18:39:07.319Z,27.71
2019-06-15T18:41:37.014Z,27.33
2019-06-15T18:44:06.438Z,26.37
2019-06-15T18:46:36.733Z,27.52
2019-06-15T18:49:06.720Z,27.45
2019-06-15T18:51:35.844Z,27.36
2019-06-15T18:54:06.745Z,27.32
2019-06-15T18:56:36.352Z,27.04
2019-06-15T18:59:07.378Z,27.44
2019-06-15T19:01:37.506Z,27.40
2019-06-15T19:04:06.907Z,27.53
2019-06-15T19:06:37.221Z,27.21
2019-06-15T19:09:08.516Z,27.15
2019-06-15T19:11:37.501Z,27.13
2019-06-15T19:14:06.944Z,27.07
2019-06-15T19:16:37.223Z,26.70
2019-06-15T19:19:09.118Z,27.36
2019-06-15T19:21:36.968Z,26.96
2019-06-15T19:24:07.269Z,27.30
2019-06-15T19:26:37.695Z,25.53
2019-06-15T19:29:06.682Z,25.39
2019-06-15T19:31:36.732Z,25.57
2019-06-15T19:34:06.769Z,25.80
2019-06-15T19:36:36.655Z,25.21
2019-06-15T19:39:07.135Z,24.78
2019-06-15T19:41:38.059Z,24.84
2019-06-15T19:44:07.038Z,24.89
2019-06-15T19:46:36.565Z,25.31
2019-06-15T19:49:06.321Z,24.95
2019-06-15T19:51:36.307Z,25.11
2019-06-15T19:54:06.977Z,24.82
2019-06-15T19:56:37.220Z,24.16
2019-06-15T19:59:06.979Z,24.32
2019-06-15T20:01:36.333Z,24.64
2019-06-15T20:04:06.604Z,24.79
2019-06-15T20:06:37.032Z,25.28
2019-06-15T20:09:09.742Z,24.28
2019-06-15T20:11:38.631Z,24.41
2019-06-15T20:14:07.646Z,24.58
2019-06-15T20:16:36.615Z,24.22
2019-06-15T20:19:06.810Z,24.52
2019-06-15T20:21:37.471Z,23.34
2019-06-15T20:24:06.581Z,24.05
2019-06-15T20:26:36.597Z,23.68
2019-06-15T20:29:07.053Z,24.25
2019-06-15T20:31:37.010Z,23.78
2019-06-15T20:34:06.082Z,23.68
2019-06-15T20:36:36.614Z,23.04
2019-06-15T20:39:07.404Z,23.02
2019-06-15T20:41:36.558Z,23.33
2019-06-15T20:44:05.552Z,23.34
2019-06-15T20:46:36.951Z,22.96
2019-06-15T20:49:06.573Z,23.15
2019-06-15T20:51:37.226Z,23.47
2019-06-15T20:54:07.010Z,23.63
2019-06-15T20:56:37.304Z,23.31
2019-06-15T20:59:06.808Z,22.95
2019-06-15T21:01:36.879Z,23.26
2019-06-15T21:04:07.369Z,23.71
2019-06-15T21:06:37.146Z,23.43
2019-06-15T21:09:07.170Z,23.11
2019-06-15T21:11:36.354Z,22.75
2019-06-15T21:14:05.400Z,22.78
2019-06-15T21:16:36.835Z,23.12
2019-06-15T21:19:06.534Z,22.92
2019-06-15T21:21:37.437Z,22.27
2019-06-15T21:24:06.906Z,22.35
2019-06-15T21:26:35.830Z,22.62
2019-06-15T21:29:06.688Z,22.89
2019-06-15T21:31:36.781Z,22.39
2019-06-15T21:34:07.045Z,22.35
2019-06-15T21:36:37.670Z,22.28
2019-06-15T21:39:07.684Z,22.32
2019-06-15T21:41:36.974Z,22.82
2019-06-15T21:44:06.473Z,22.90
2019-06-15T21:46:36.227Z,22.10
2019-06-15T21:49:07.139Z,22.72
2019-06-15T21:51:36.694Z,22.88
2019-06-15T21:54:07.580Z,21.88
2019-06-15T21:56:41.085Z,22.16
2019-06-15T21:59:16.733Z,21.60
2019-06-15T22:01:49.797Z,21.85
2019-06-15T22:04:25.955Z,21.99
2019-06-15T22:07:06.621Z,22.54
2019-06-15T22:09:40.062Z,22.26
2019-06-15T22:12:09.305Z,22.39
2019-06-15T22:14:52.860Z,22.09
2019-06-15T22:17:22.165Z,22.45
2019-06-15T22:19:52.625Z,21.73
2019-06-15T22:22:29.662Z,21.79
2019-06-15T22:25:01.952Z,21.46
2019-06-15T22:27:42.026Z,21.38
2019-06-15T22:30:12.591Z,21.67
2019-06-15T22:33:07.395Z,21.55
2019-06-15T22:35:43.607Z,21.66
2019-06-15T22:38:21.666Z,22.11
2019-06-15T22:40:51.825Z,21.65
2019-06-15T22:43:20.964Z,21.59
2019-06-15T22:45:50.456Z,21.48
2019-06-15T22:48:19.540Z,21.47
2019-06-15T22:50:49.788Z,21.52
2019-06-15T22:53:18.942Z,21.70
2019-06-15T22:55:48.099Z,21.15
2019-06-15T22:58:24.093Z,22.03
2019-06-15T23:01:06.050Z,21.13
2019-06-15T23:03:46.573Z,21.23
2019-06-15T23:06:16.258Z,21.11
2019-06-15T23:08:56.471Z,21.06
2019-06-15T23:11:26.698Z,21.69
2019-06-15T23:13:57.556Z,21.15
2019-06-15T23:16:27.368Z,21.25
2019-06-15T23:18:57.318Z,21.41
2019-06-15T23:21:26.927Z,21.78
2019-06-15T23:23:56.545Z,21.32
2019-06-15T23:26:25.641Z,21.16
2019-06-15T23:28:56.474Z,21.13
2019-06-15T23:31:27.739Z,20.96
2019-06-15T23:33:56.900Z,21.16
2019-06-15T23:36:51.757Z,20.82
2019-06-15T23:39:07.730Z,20.87
2019-06-15T23:41:36.954Z,21.82
2019-06-15T23:44:16.178Z,21.92
2019-06-15T23:46:46.950Z,21.65
2019-06-15T23:49:16.481Z,20.87
2019-06-15T23:51:46.674Z,21.00
2019-06-15T23:54:16.058Z,20.86
2019-06-15T23:57:27.545Z,20.88
2019-06-15T23:59:56.714Z,20.73
